Admiral — WCY6529 — position and weather

sailwx.info

Track history (hours):
 
Tides and Currents Weather Stations Pressure Air Temp Water Temp Dewpoint Dewpoint Depression Visibility Wind Speed Wind Dir Waves Ship Positions

Admiral

Owner: Crowley Marine Services, SEATTLE, WA. More information available from US FCC via Universal Licensing System and Coast Guard Vessel Documentation Center.

Last reported at 2016-Dec-06 03:10 UTC. Time now 2016-Dec-07 20:24 UTC.
Position N 33°44' W 118°17'.

; draft 5.3 m.

Type: Tug. MMSI: 366755020.

Date/timePositionNaut miles runAvg speedWind from/ knotsBaromVisibWave heightAir tempDewpointWater temp
2016-Dec-06 03:10N 33°44' W 118°17'2 3.7
2016-Dec-06 02:33N 33°43' W 118°15'2 1.8
2016-Dec-06 01:15N 33°44' W 118°13'2 1.2
2016-Dec-05 23:10N 33°43' W 118°15'2 1.2
2016-Dec-05 21:21N 33°44' W 118°17'0 0.0
2016-Dec-05 20:32N 33°44' W 118°17'0 0.0
2016-Dec-05 19:25N 33°44' W 118°17'0 0.0
2016-Dec-05 18:31N 33°44' W 118°17'0 0.0
2016-Dec-05 17:25N 33°44' W 118°17'0 0.0
2016-Dec-05 16:31N 33°44' W 118°17'1 1.4
2016-Dec-05 15:34N 33°45' W 118°16'0 0.3
2016-Dec-05 14:31N 33°46' W 118°16'1 0.8
2016-Dec-05 13:33N 33°46' W 118°17'3 3.0
2016-Dec-05 12:33N 33°43' W 118°15'2 2.1
2016-Dec-05 11:33N 33°44' W 118°17'0 0.0
2016-Dec-05 10:33N 33°44' W 118°17'0 0.0
2016-Dec-05 09:33N 33°44' W 118°17'0 0.0
2016-Dec-05 08:33N 33°44' W 118°17'0 0.0
2016-Dec-05 07:33N 33°44' W 118°17'0 0.0
2016-Dec-05 06:33N 33°44' W 118°17'2 1.8
2016-Dec-05 05:33N 33°46' W 118°15'3 3.1
2016-Dec-05 04:34N 33°43' W 118°15'1 1.0
2016-Dec-05 03:32N 33°43' W 118°16'2 1.6
2016-Dec-05 02:33N 33°44' W 118°17'0 0.0
2016-Dec-05 01:33N 33°44' W 118°17'0 0.0
2016-Dec-05 00:27N 33°44' W 118°17'0 0.0
2016-Dec-04 23:30N 33°44' W 118°17'0 0.0
2016-Dec-04 22:33N 33°44' W 118°17'0 0.0
2016-Dec-04 20:32N 33°44' W 118°17'0 0.0
2016-Dec-04 19:25N 33°44' W 118°17'0 0.0
2016-Dec-04 18:21N 33°44' W 118°17'0 0.0
2016-Dec-04 17:33N 33°44' W 118°17'0 0.0
2016-Dec-04 16:32N 33°44' W 118°17'0 0.0
2016-Dec-04 15:33N 33°44' W 118°17'0 0.4
2016-Dec-04 14:33N 33°45' W 118°16'1 1.3
2016-Dec-04 13:33N 33°43' W 118°16'0 0.1
2016-Dec-04 12:33N 33°43' W 118°16'1 1.2
2016-Dec-04 11:33N 33°44' W 118°17'0 0.0
2016-Dec-04 10:33N 33°44' W 118°17'0 0.0
2016-Dec-04 09:33N 33°44' W 118°17'0 0.0
2016-Dec-04 08:33N 33°44' W 118°17'0 0.0
2016-Dec-04 07:33N 33°44' W 118°17'0 0.0
2016-Dec-04 06:33N 33°44' W 118°17'0 0.0
2016-Dec-04 05:33N 33°44' W 118°17'0 0.0
2016-Dec-04 04:33N 33°44' W 118°17'0 0.0
2016-Dec-04 02:33N 33°44' W 118°17'0 0.0
2016-Dec-04 01:33N 33°44' W 118°17'0 0.0
2016-Dec-04 00:33N 33°44' W 118°17'0 0.0
2016-Dec-03 23:33N 33°44' W 118°17'0 0.0
2016-Dec-03 22:33N 33°44' W 118°17'0 0.0
2016-Dec-03 21:33N 33°44' W 118°17'0 0.0
2016-Dec-02 13:20N 33°44' W 118°17'1 1.0
2016-Dec-02 12:33N 33°45' W 118°16'1 0.6
2016-Dec-02 11:33N 33°45' W 118°17'0 0.2
2016-Dec-02 10:25N 33°44' W 118°17'0 0.0
2016-Dec-02 09:15N 33°44' W 118°17'1 0.1
2016-Dec-02 01:33N 33°44' W 118°16'2 1.4
2016-Dec-02 00:23N 33°45' W 118°16'3 2.5
2016-Dec-01 23:20N 33°43' W 118°14'2 2.7
2016-Dec-01 22:34N 33°45' W 118°13'1 0.5
2016-Dec-01 21:33N 33°45' W 118°13'3 0.4
2016-Dec-01 15:23N 33°43' W 118°14'2 1.7
2016-Dec-01 14:10N 33°45' W 118°14'0 0.2
2016-Dec-01 13:29N 33°45' W 118°14'2 0.3
2016-Dec-01 05:31N 33°44' W 118°17'3 1.3
2016-Dec-01 03:33N 33°43' W 118°14'3 2.5
2016-Dec-01 02:32N 33°46' W 118°13'0 0.0
2016-Dec-01 01:33N 33°46' W 118°13'2 1.6
2016-Dec-01 00:33N 33°44' W 118°12'1 1.2
2016-Nov-30 23:33N 33°43' W 118°13'3 0.1
2016-Nov-30 02:33N 33°44' W 118°17'0 0.0
2016-Nov-30 01:33N 33°44' W 118°17'0 0.0
2016-Nov-30 00:33N 33°44' W 118°17'1 0.4
2016-Nov-29 23:12N 33°45' W 118°16'1 0.8
2016-Nov-29 22:07N 33°45' W 118°16'2 3.9
2016-Nov-29 21:33N 33°43' W 118°16'1 1.0
2016-Nov-29 20:31N 33°43' W 118°15'2 1.5
2016-Nov-29 19:08N 33°44' W 118°17'0 0.0
2016-Nov-29 18:21N 33°44' W 118°17'0 0.0
2016-Nov-29 17:32N 33°44' W 118°17'0 0.0
2016-Nov-29 16:33N 33°44' W 118°17'0 0.0
2016-Nov-29 15:33N 33°44' W 118°17'3 3.1
2016-Nov-29 14:34N 33°43' W 118°13'2 2.2
2016-Nov-29 13:33N 33°45' W 118°13'0 0.1
2016-Nov-29 12:34N 33°45' W 118°13'0 0.0
2016-Nov-28 18:10N 33°45' W 118°13'3 0.8
2016-Nov-28 15:12N 33°44' W 118°10'4 4.0
2016-Nov-28 14:08N 33°44' W 118°15'2 1.0
2016-Nov-28 12:26N 33°45' W 118°14'1 1.2
2016-Nov-28 11:22N 33°45' W 118°13'1 0.6
2016-Nov-28 10:30N 33°44' W 118°12'4 0.1
2016-Nov-26 14:14N 33°44' W 118°17'1 0.7
2016-Nov-26 12:33N 33°46' W 118°17'0 0.4
2016-Nov-26 11:33N 33°46' W 118°16'1 1.5
2016-Nov-26 10:33N 33°44' W 118°17'0 0.0
2016-Nov-26 09:33N 33°44' W 118°17'0 0.0
2016-Nov-26 08:33N 33°44' W 118°17'3 3.2
2016-Nov-26 07:33N 33°45' W 118°13'1 0.9
2016-Nov-26 06:33N 33°46' W 118°13'3 2.8
2016-Nov-26 05:28N 33°44' W 118°12'2 2.1
2016-Nov-26 04:33N 33°45' W 118°13'0 0.0
2016-Nov-26 03:33N 33°45' W 118°13'  
Track history (hours):
 
Tides and Currents Weather Stations Pressure Air Temp Water Temp Dewpoint Dewpoint Depression Visibility Wind Speed Wind Dir Waves Ship Positions

Admiral

Owner: Crowley Marine Services, SEATTLE, WA. More information available from US FCC via Universal Licensing System and Coast Guard Vessel Documentation Center.

Last reported at 2016-Dec-06 03:10 UTC. Time now 2016-Dec-07 20:24 UTC.
Position N 33°44' W 118°17'.

; draft 5.3 m.

Type: Tug. MMSI: 366755020.

Date/timePositionNaut miles runAvg speedWind from/ knotsBaromVisibWave heightAir tempDewpointWater temp
2016-Dec-06 03:10N 33°44' W 118°17'2 3.7
2016-Dec-06 02:33N 33°43' W 118°15'2 1.8
2016-Dec-06 01:15N 33°44' W 118°13'2 1.2
2016-Dec-05 23:10N 33°43' W 118°15'2 1.2
2016-Dec-05 21:21N 33°44' W 118°17'0 0.0
2016-Dec-05 20:32N 33°44' W 118°17'0 0.0
2016-Dec-05 19:25N 33°44' W 118°17'0 0.0
2016-Dec-05 18:31N 33°44' W 118°17'0 0.0
2016-Dec-05 17:25N 33°44' W 118°17'0 0.0
2016-Dec-05 16:31N 33°44' W 118°17'1 1.4
2016-Dec-05 15:34N 33°45' W 118°16'0 0.3
2016-Dec-05 14:31N 33°46' W 118°16'1 0.8
2016-Dec-05 13:33N 33°46' W 118°17'3 3.0
2016-Dec-05 12:33N 33°43' W 118°15'2 2.1
2016-Dec-05 11:33N 33°44' W 118°17'0 0.0
2016-Dec-05 10:33N 33°44' W 118°17'0 0.0
2016-Dec-05 09:33N 33°44' W 118°17'0 0.0
2016-Dec-05 08:33N 33°44' W 118°17'0 0.0
2016-Dec-05 07:33N 33°44' W 118°17'0 0.0
2016-Dec-05 06:33N 33°44' W 118°17'2 1.8
2016-Dec-05 05:33N 33°46' W 118°15'3 3.1
2016-Dec-05 04:34N 33°43' W 118°15'1 1.0
2016-Dec-05 03:32N 33°43' W 118°16'2 1.6
2016-Dec-05 02:33N 33°44' W 118°17'0 0.0
2016-Dec-05 01:33N 33°44' W 118°17'0 0.0
2016-Dec-05 00:27N 33°44' W 118°17'0 0.0
2016-Dec-04 23:30N 33°44' W 118°17'0 0.0
2016-Dec-04 22:33N 33°44' W 118°17'0 0.0
2016-Dec-04 20:32N 33°44' W 118°17'0 0.0
2016-Dec-04 19:25N 33°44' W 118°17'0 0.0
2016-Dec-04 18:21N 33°44' W 118°17'0 0.0
2016-Dec-04 17:33N 33°44' W 118°17'0 0.0
2016-Dec-04 16:32N 33°44' W 118°17'0 0.0
2016-Dec-04 15:33N 33°44' W 118°17'0 0.4
2016-Dec-04 14:33N 33°45' W 118°16'1 1.3
2016-Dec-04 13:33N 33°43' W 118°16'0 0.1
2016-Dec-04 12:33N 33°43' W 118°16'1 1.2
2016-Dec-04 11:33N 33°44' W 118°17'0 0.0
2016-Dec-04 10:33N 33°44' W 118°17'0 0.0
2016-Dec-04 09:33N 33°44' W 118°17'0 0.0
2016-Dec-04 08:33N 33°44' W 118°17'0 0.0
2016-Dec-04 07:33N 33°44' W 118°17'0 0.0
2016-Dec-04 06:33N 33°44' W 118°17'0 0.0
2016-Dec-04 05:33N 33°44' W 118°17'0 0.0
2016-Dec-04 04:33N 33°44' W 118°17'0 0.0
2016-Dec-04 02:33N 33°44' W 118°17'0 0.0
2016-Dec-04 01:33N 33°44' W 118°17'0 0.0
2016-Dec-04 00:33N 33°44' W 118°17'0 0.0
2016-Dec-03 23:33N 33°44' W 118°17'0 0.0
2016-Dec-03 22:33N 33°44' W 118°17'0 0.0
2016-Dec-03 21:33N 33°44' W 118°17'0 0.0
2016-Dec-02 13:20N 33°44' W 118°17'1 1.0
2016-Dec-02 12:33N 33°45' W 118°16'1 0.6
2016-Dec-02 11:33N 33°45' W 118°17'0 0.2
2016-Dec-02 10:25N 33°44' W 118°17'0 0.0
2016-Dec-02 09:15N 33°44' W 118°17'1 0.1
2016-Dec-02 01:33N 33°44' W 118°16'2 1.4
2016-Dec-02 00:23N 33°45' W 118°16'3 2.5
2016-Dec-01 23:20N 33°43' W 118°14'2 2.7
2016-Dec-01 22:34N 33°45' W 118°13'1 0.5
2016-Dec-01 21:33N 33°45' W 118°13'3 0.4
2016-Dec-01 15:23N 33°43' W 118°14'2 1.7
2016-Dec-01 14:10N 33°45' W 118°14'0 0.2
2016-Dec-01 13:29N 33°45' W 118°14'2 0.3
2016-Dec-01 05:31N 33°44' W 118°17'3 1.3
2016-Dec-01 03:33N 33°43' W 118°14'3 2.5
2016-Dec-01 02:32N 33°46' W 118°13'0 0.0
2016-Dec-01 01:33N 33°46' W 118°13'2 1.6
2016-Dec-01 00:33N 33°44' W 118°12'1 1.2
2016-Nov-30 23:33N 33°43' W 118°13'3 0.1
2016-Nov-30 02:33N 33°44' W 118°17'0 0.0
2016-Nov-30 01:33N 33°44' W 118°17'0 0.0
2016-Nov-30 00:33N 33°44' W 118°17'1 0.4
2016-Nov-29 23:12N 33°45' W 118°16'1 0.8
2016-Nov-29 22:07N 33°45' W 118°16'2 3.9
2016-Nov-29 21:33N 33°43' W 118°16'1 1.0
2016-Nov-29 20:31N 33°43' W 118°15'2 1.5
2016-Nov-29 19:08N 33°44' W 118°17'0 0.0
2016-Nov-29 18:21N 33°44' W 118°17'0 0.0
2016-Nov-29 17:32N 33°44' W 118°17'0 0.0
2016-Nov-29 16:33N 33°44' W 118°17'0 0.0
2016-Nov-29 15:33N 33°44' W 118°17'3 3.1
2016-Nov-29 14:34N 33°43' W 118°13'2 2.2
2016-Nov-29 13:33N 33°45' W 118°13'0 0.1
2016-Nov-29 12:34N 33°45' W 118°13'0 0.0
2016-Nov-28 18:10N 33°45' W 118°13'3 0.8
2016-Nov-28 15:12N 33°44' W 118°10'4 4.0
2016-Nov-28 14:08N 33°44' W 118°15'2 1.0
2016-Nov-28 12:26N 33°45' W 118°14'1 1.2
2016-Nov-28 11:22N 33°45' W 118°13'1 0.6
2016-Nov-28 10:30N 33°44' W 118°12'4 0.1
2016-Nov-26 14:14N 33°44' W 118°17'1 0.7
2016-Nov-26 12:33N 33°46' W 118°17'0 0.4
2016-Nov-26 11:33N 33°46' W 118°16'1 1.5
2016-Nov-26 10:33N 33°44' W 118°17'0 0.0
2016-Nov-26 09:33N 33°44' W 118°17'0 0.0
2016-Nov-26 08:33N 33°44' W 118°17'3 3.2
2016-Nov-26 07:33N 33°45' W 118°13'1 0.9
2016-Nov-26 06:33N 33°46' W 118°13'3 2.8
2016-Nov-26 05:28N 33°44' W 118°12'2 2.1
2016-Nov-26 04:33N 33°45' W 118°13'0 0.0
2016-Nov-26 03:33N 33°45' W 118°13'  

Dump ship's entire track history